Time;durP1;ratioP1;P1;durP2;ratioP2;P2;SDS_P1;SDS_P2;PMS_P1;PMS_P2;Temp;Humidity;BMP_temperature;BMP_pressure;BME280_temperature;BME280_humidity;BME280_pressure;Samples;Min_cycle;Max_cycle;Signal;HPM_P1;HPM_P2
2023/09/10 00:01:09;;;;;;;0.10;0.10;;;20.60;99.90;;;;;;4988986;28;20196;-80
2023/09/10 00:03:35;;;;;;;0.10;0.10;;;20.60;99.90;;;;;;4994644;28;20307;-80
2023/09/10 00:06:03;;;;;;;0.10;0.10;;;20.60;99.90;;;;;;4995811;28;20625;-80
2023/09/10 00:08:29;;;;;;;0.10;0.10;;;20.60;99.90;;;;;;4995781;28;20188;-80
2023/09/10 00:10:56;;;;;;;0.10;0.10;;;20.60;99.90;;;;;;4993744;28;20243;-80
2023/09/10 00:13:22;;;;;;;0.10;0.10;;;20.60;99.90;;;;;;4996030;28;20231;-80
2023/09/10 00:15:48;;;;;;;0.10;0.10;;;20.60;99.90;;;;;;5006888;28;20180;-80
2023/09/10 00:18:14;;;;;;;0.10;0.10;;;20.60;99.90;;;;;;4989954;28;20960;-80
2023/09/10 00:20:40;;;;;;;0.10;0.10;;;20.60;99.90;;;;;;4987232;28;20199;-80
2023/09/10 00:23:06;;;;;;;0.10;0.10;;;20.60;99.90;;;;;;4995727;28;20199;-80
2023/09/10 00:25:31;;;;;;;0.10;0.10;;;20.50;99.90;;;;;;4995217;28;20193;-80
2023/09/10 00:27:57;;;;;;;0.10;0.10;;;20.60;99.90;;;;;;4994769;28;20215;-80
2023/09/10 00:30:23;;;;;;;0.10;0.10;;;20.60;99.90;;;;;;4994874;28;20254;-80
2023/09/10 00:32:49;;;;;;;0.10;0.10;;;20.60;99.90;;;;;;4988243;28;20212;-80
2023/09/10 00:35:14;;;;;;;0.10;0.10;;;20.50;99.90;;;;;;4988383;28;20199;-80
2023/09/10 00:37:40;;;;;;;0.10;0.10;;;20.50;99.90;;;;;;4988890;28;20192;-80
2023/09/10 00:40:08;;;;;;;0.10;0.10;;;20.40;99.90;;;;;;4995955;28;20196;-80
2023/09/10 00:42:35;;;;;;;0.10;0.10;;;20.40;99.90;;;;;;4992595;28;20673;-80
2023/09/10 00:45:01;;;;;;;0.10;0.10;;;20.40;99.90;;;;;;4990210;28;20660;-80
2023/09/10 00:47:27;;;;;;;0.10;0.10;;;20.40;99.90;;;;;;4989498;28;20231;-80
2023/09/10 00:49:53;;;;;;;0.10;0.10;;;20.30;99.90;;;;;;4988177;28;20184;-80
2023/09/10 00:52:21;;;;;;;0.10;0.10;;;20.30;99.90;;;;;;4996235;28;20200;-80
2023/09/10 00:54:48;;;;;;;0.10;0.10;;;20.30;99.90;;;;;;4988208;28;20184;-80
2023/09/10 00:57:14;;;;;;;0.10;0.10;;;20.20;99.90;;;;;;4992037;28;20196;-80
2023/09/10 00:59:41;;;;;;;0.10;0.10;;;20.10;99.90;;;;;;4998846;28;20193;-80
2023/09/10 01:02:08;;;;;;;0.10;0.10;;;20.10;99.90;;;;;;4995082;28;20199;-80
2023/09/10 01:04:33;;;;;;;0.10;0.10;;;20.00;99.90;;;;;;4996529;28;20659;-80
2023/09/10 01:07:01;;;;;;;0.10;0.10;;;19.80;99.90;;;;;;4996064;28;20248;-80
2023/09/10 01:09:26;;;;;;;0.10;0.10;;;19.70;99.90;;;;;;4992420;28;20276;-80
2023/09/10 01:12:20;;;;;;;0.10;0.10;;;19.80;99.90;;;;;;4990285;28;20611;-80
2023/09/10 01:15:03;;;;;;;0.10;0.10;;;19.50;99.90;;;;;;4991492;28;20639;-80
2023/09/10 01:17:45;;;;;;;0.10;0.10;;;19.40;99.90;;;;;;4997922;28;20198;-80
2023/09/10 01:20:28;;;;;;;0.10;0.10;;;19.40;99.90;;;;;;4996570;28;20199;-80
2023/09/10 01:23:04;;;;;;;0.10;0.10;;;19.40;99.90;;;;;;4990964;28;20226;-80
2023/09/10 01:25:31;;;;;;;0.10;0.10;;;19.50;99.90;;;;;;5005379;28;20192;-80
2023/09/10 01:27:57;;;;;;;0.10;0.10;;;19.60;99.90;;;;;;4990486;28;20243;-80
2023/09/10 01:30:22;;;;;;;0.10;0.10;;;19.60;99.90;;;;;;4991818;28;20196;-80
2023/09/10 01:32:51;;;;;;;0.10;0.10;;;19.60;99.90;;;;;;4997532;28;20204;-80
2023/09/10 01:35:32;;;;;;;0.10;0.10;;;19.70;99.90;;;;;;4997815;28;20185;-80
2023/09/10 01:38:02;;;;;;;0.10;0.10;;;19.50;99.90;;;;;;4991728;28;20268;-80
2023/09/10 01:40:45;;;;;;;0.10;0.10;;;19.10;99.90;;;;;;4998331;28;20260;-80
2023/09/10 01:43:11;;;;;;;0.10;0.10;;;19.20;99.90;;;;;;4992005;28;21163;-80
2023/09/10 01:45:37;;;;;;;0.10;0.10;;;19.30;99.90;;;;;;4992719;28;20254;-80
2023/09/10 01:48:04;;;;;;;0.10;0.10;;;19.40;99.90;;;;;;4991900;28;20243;-80
2023/09/10 01:50:30;;;;;;;0.10;0.10;;;19.50;99.90;;;;;;4997422;28;20196;-80
2023/09/10 01:52:58;;;;;;;0.10;0.10;;;19.50;99.90;;;;;;4993521;28;20201;-80
2023/09/10 01:55:24;;;;;;;0.10;0.10;;;19.60;99.90;;;;;;4992486;28;20188;-80
2023/09/10 01:57:50;;;;;;;0.10;0.10;;;19.60;99.90;;;;;;4993548;28;20275;-80
2023/09/10 02:00:15;;;;;;;0.10;0.10;;;19.50;99.90;;;;;;4992556;28;20274;-80
2023/09/10 02:02:41;;;;;;;0.10;0.10;;;19.40;99.90;;;;;;4990393;28;20214;-81
2023/09/10 02:05:07;;;;;;;0.10;0.10;;;19.40;99.90;;;;;;4990957;28;20668;-80
2023/09/10 02:07:33;;;;;;;0.10;0.10;;;19.50;99.90;;;;;;4992499;28;20203;-80
2023/09/10 02:09:59;;;;;;;0.10;0.10;;;19.50;99.90;;;;;;4991531;28;20212;-80
2023/09/10 02:12:25;;;;;;;0.10;0.10;;;19.30;99.90;;;;;;4997758;28;20210;-80
2023/09/10 02:14:50;;;;;;;0.10;0.10;;;19.30;99.90;;;;;;4996745;28;20176;-80
2023/09/10 02:17:16;;;;;;;0.10;0.10;;;19.30;99.90;;;;;;4997055;28;20188;-80
2023/09/10 02:19:41;;;;;;;0.10;0.10;;;19.40;99.90;;;;;;4996789;28;20195;-80
2023/09/10 02:22:07;;;;;;;0.10;0.10;;;19.40;99.90;;;;;;4997173;28;20194;-80
2023/09/10 02:24:32;;;;;;;0.10;0.10;;;19.40;99.90;;;;;;4997881;28;20239;-80
2023/09/10 02:26:58;;;;;;;0.10;0.10;;;19.40;99.90;;;;;;4990839;28;20273;-80
2023/09/10 02:29:23;;;;;;;0.10;0.10;;;19.40;99.90;;;;;;4991872;28;20287;-80
2023/09/10 02:31:49;;;;;;;0.10;0.10;;;19.40;99.90;;;;;;4991553;28;20322;-80
2023/09/10 02:34:14;;;;;;;0.10;0.10;;;19.30;99.90;;;;;;4997397;28;20549;-80
2023/09/10 02:36:40;;;;;;;0.10;0.10;;;19.10;99.90;;;;;;4997817;28;20189;-81
2023/09/10 02:39:05;;;;;;;0.10;0.10;;;19.00;99.90;;;;;;4997445;28;20191;-80
2023/09/10 02:41:31;;;;;;;0.10;0.10;;;19.00;99.90;;;;;;4988911;28;20215;-80
2023/09/10 02:43:56;;;;;;;0.10;0.10;;;18.90;99.90;;;;;;5005679;28;20711;-80
2023/09/10 02:46:23;;;;;;;0.10;0.10;;;18.70;99.90;;;;;;5005185;28;20208;-80
2023/09/10 02:48:49;;;;;;;0.10;0.10;;;18.60;99.90;;;;;;4994770;28;20188;-80
2023/09/10 02:51:14;;;;;;;0.10;0.10;;;18.70;99.90;;;;;;4989705;28;20584;-80
2023/09/10 02:53:40;;;;;;;0.10;0.10;;;18.80;99.90;;;;;;4988032;28;21037;-80
2023/09/10 02:56:05;;;;;;;0.10;0.10;;;18.90;99.90;;;;;;4996249;28;20657;-80
2023/09/10 02:58:32;;;;;;;0.10;0.10;;;18.90;99.90;;;;;;4992171;28;20198;-80
2023/09/10 03:01:03;;;;;;;0.10;0.10;;;19.00;99.90;;;;;;4996401;28;20564;-80
2023/09/10 03:03:29;;;;;;;0.10;0.10;;;19.00;99.90;;;;;;4994841;28;20207;-80
2023/09/10 03:05:54;;;;;;;0.10;0.10;;;18.90;99.90;;;;;;4989297;28;20179;-80
2023/09/10 03:08:20;;;;;;;0.10;0.10;;;18.70;99.90;;;;;;4987825;28;20208;-80
2023/09/10 03:10:45;;;;;;;0.10;0.10;;;18.60;99.90;;;;;;4989850;28;20196;-80
2023/09/10 03:13:11;;;;;;;0.10;0.10;;;18.60;99.90;;;;;;4990651;28;20266;-80
2023/09/10 03:15:36;;;;;;;0.10;0.10;;;18.70;99.90;;;;;;4989343;28;20180;-80
2023/09/10 03:18:02;;;;;;;0.10;0.10;;;18.80;99.90;;;;;;4994298;28;20188;-80
2023/09/10 03:20:27;;;;;;;0.10;0.10;;;18.80;99.90;;;;;;4989157;28;20195;-80
2023/09/10 03:22:57;;;;;;;0.10;0.10;;;18.90;99.90;;;;;;4988022;28;20239;-80
2023/09/10 03:25:23;;;;;;;0.10;0.10;;;19.00;99.90;;;;;;4988513;28;20180;-80
2023/09/10 03:27:49;;;;;;;0.10;0.10;;;19.10;99.90;;;;;;5003140;28;20283;-80
2023/09/10 03:30:15;;;;;;;0.10;0.10;;;19.10;99.90;;;;;;4988752;28;20192;-80
2023/09/10 03:32:41;;;;;;;0.10;0.10;;;19.10;99.90;;;;;;4993698;28;20300;-80
2023/09/10 03:35:07;;;;;;;0.10;0.10;;;19.00;99.90;;;;;;4988891;28;20250;-80
2023/09/10 03:37:32;;;;;;;0.10;0.10;;;18.90;99.90;;;;;;4988009;28;20594;-80
2023/09/10 03:39:58;;;;;;;0.10;0.10;;;18.50;99.90;;;;;;5004358;28;20180;-80
2023/09/10 03:42:23;;;;;;;0.10;0.10;;;18.30;99.90;;;;;;4987100;28;20204;-80
2023/09/10 03:44:49;;;;;;;0.10;0.10;;;18.40;99.90;;;;;;5004776;28;20188;-80
2023/09/10 03:47:14;;;;;;;0.10;0.10;;;18.50;99.90;;;;;;4987005;28;20220;-80
2023/09/10 03:49:40;;;;;;;0.10;0.10;;;18.60;99.90;;;;;;4989088;28;20571;-80
2023/09/10 03:52:20;;;;;;;0.10;0.10;;;18.60;99.90;;;;;;4989066;28;20192;-80
2023/09/10 03:54:45;;;;;;;0.10;0.10;;;18.60;99.90;;;;;;5004383;28;20188;-80
2023/09/10 03:57:11;;;;;;;0.10;0.10;;;18.70;99.90;;;;;;4996040;28;20187;-80
2023/09/10 03:59:36;;;;;;;0.10;0.10;;;18.70;99.90;;;;;;4990407;28;20191;-80
2023/09/10 04:02:02;;;;;;;0.10;0.10;;;18.80;99.90;;;;;;4986919;28;20184;-80
2023/09/10 04:04:28;;;;;;;0.10;0.10;;;18.80;99.90;;;;;;4989509;28;20211;-80
2023/09/10 04:06:54;;;;;;;0.10;0.10;;;18.70;99.90;;;;;;4988033;28;20215;-80
2023/09/10 04:09:19;;;;;;;0.10;0.10;;;18.50;99.90;;;;;;4995887;28;20196;-80
2023/09/10 04:11:45;;;;;;;0.10;0.10;;;18.40;99.90;;;;;;4989377;28;20184;-80
2023/09/10 04:14:10;;;;;;;0.10;0.10;;;18.30;99.90;;;;;;4987861;28;20303;-80
2023/09/10 04:16:36;;;;;;;0.10;0.10;;;18.20;99.90;;;;;;4990169;28;20666;-80
2023/09/10 04:19:01;;;;;;;0.10;0.10;;;18.40;99.90;;;;;;4987557;28;20180;-80
2023/09/10 04:21:27;;;;;;;0.10;0.10;;;18.40;99.90;;;;;;4989648;28;20188;-80
2023/09/10 04:23:52;;;;;;;0.10;0.10;;;18.50;99.90;;;;;;4986939;28;20349;-80
2023/09/10 04:26:18;;;;;;;0.10;0.10;;;18.40;99.90;;;;;;4989200;28;20274;-80
2023/09/10 04:28:43;;;;;;;0.10;0.10;;;18.40;99.90;;;;;;4976332;28;20592;-80
2023/09/10 04:31:13;;;;;;;0.10;0.10;;;18.50;99.90;;;;;;4985230;28;20693;-80
2023/09/10 04:33:38;;;;;;;0.10;0.10;;;18.50;99.90;;;;;;4993839;28;20235;-80
2023/09/10 04:36:04;;;;;;;0.10;0.10;;;18.50;99.90;;;;;;4999891;28;20180;-80
2023/09/10 04:38:29;;;;;;;0.10;0.10;;;18.60;99.90;;;;;;4993078;28;20195;-80
2023/09/10 04:40:55;;;;;;;0.10;0.10;;;18.60;99.90;;;;;;4990558;28;20188;-80
2023/09/10 04:43:21;;;;;;;0.10;0.10;;;18.60;99.90;;;;;;4999441;28;20212;-80
2023/09/10 04:45:47;;;;;;;0.10;0.10;;;18.50;99.90;;;;;;4992908;28;20279;-80
2023/09/10 04:48:13;;;;;;;0.10;0.10;;;18.50;99.90;;;;;;4988832;28;20230;-79
2023/09/10 04:50:39;;;;;;;0.10;0.10;;;18.60;99.90;;;;;;4982193;28;20187;-79
2023/09/10 04:53:04;;;;;;;0.10;0.10;;;18.60;99.90;;;;;;4982539;28;20246;-79
2023/09/10 04:55:30;;;;;;;0.10;0.10;;;18.60;99.90;;;;;;4983534;28;20202;-79
2023/09/10 04:57:55;;;;;;;0.10;0.10;;;18.60;99.90;;;;;;4983895;28;20937;-79
2023/09/10 05:00:21;;;;;;;0.10;0.10;;;18.40;99.90;;;;;;4986064;28;20197;-79
2023/09/10 05:02:46;;;;;;;0.10;0.10;;;18.20;99.90;;;;;;4979988;28;20274;-79
2023/09/10 05:05:12;;;;;;;0.10;0.10;;;18.10;99.90;;;;;;4980335;28;20189;-79
2023/09/10 05:07:37;;;;;;;0.30;0.30;;;18.00;99.90;;;;;;4984524;28;21036;-80
2023/09/10 05:10:03;;;;;;;0.10;0.10;;;18.20;99.90;;;;;;4991006;28;20203;-81
2023/09/10 05:12:29;;;;;;;0.10;0.10;;;18.30;99.90;;;;;;4986037;28;20241;-80
2023/09/10 05:14:54;;;;;;;0.10;0.10;;;18.50;99.90;;;;;;4986162;28;20193;-80
2023/09/10 05:17:20;;;;;;;0.10;0.10;;;18.60;99.90;;;;;;4989362;28;20295;-80
2023/09/10 05:19:47;;;;;;;0.10;0.10;;;18.60;99.90;;;;;;4993957;28;20198;-80
2023/09/10 05:22:12;;;;;;;0.10;0.10;;;18.70;99.90;;;;;;4992213;28;20202;-80
2023/09/10 05:24:38;;;;;;;0.10;0.10;;;18.80;99.90;;;;;;4996877;28;20192;-80
2023/09/10 05:27:03;;;;;;;0.10;0.10;;;18.80;99.90;;;;;;4995942;28;20261;-80
2023/09/10 05:29:29;;;;;;;0.10;0.10;;;18.80;99.90;;;;;;4995377;28;20267;-80
2023/09/10 05:31:54;;;;;;;0.10;0.10;;;18.90;99.90;;;;;;4995115;28;20237;-80
2023/09/10 05:34:20;;;;;;;0.10;0.10;;;19.00;99.90;;;;;;4996415;28;20214;-80
2023/09/10 05:36:45;;;;;;;0.10;0.10;;;19.10;99.90;;;;;;4995644;28;20188;-80
2023/09/10 05:39:11;;;;;;;0.10;0.10;;;19.10;99.90;;;;;;4993926;28;20199;-80
2023/09/10 05:41:36;;;;;;;0.10;0.10;;;19.20;99.90;;;;;;5001020;28;20284;-80
2023/09/10 05:44:03;;;;;;;0.10;0.10;;;19.20;99.90;;;;;;4994193;28;20725;-80
2023/09/10 05:46:29;;;;;;;0.10;0.10;;;19.10;99.90;;;;;;4995100;28;20587;-80
2023/09/10 05:48:54;;;;;;;0.10;0.10;;;18.90;99.90;;;;;;4994498;28;20200;-80
2023/09/10 05:51:20;;;;;;;0.10;0.10;;;18.70;99.90;;;;;;4992174;28;20187;-81
2023/09/10 05:53:45;;;;;;;0.10;0.10;;;18.90;99.90;;;;;;5002353;28;20211;-80
2023/09/10 05:56:11;;;;;;;0.10;0.10;;;19.10;99.90;;;;;;4999660;28;20187;-80
2023/09/10 05:58:36;;;;;;;0.10;0.10;;;19.30;99.90;;;;;;4995599;28;20180;-81
2023/09/10 06:01:02;;;;;;;0.10;0.10;;;19.50;99.90;;;;;;4993275;28;20185;-80
2023/09/10 06:03:28;;;;;;;0.10;0.10;;;19.70;99.90;;;;;;4990823;28;20201;-80
2023/09/10 06:05:53;;;;;;;0.93;0.93;;;19.80;99.90;;;;;;4991486;28;20200;-80
2023/09/10 06:08:19;;;;;;;0.10;0.10;;;20.00;99.90;;;;;;5000862;28;20587;-80
2023/09/10 06:10:44;;;;;;;0.10;0.10;;;20.10;99.90;;;;;;4994091;28;20244;-80
2023/09/10 06:13:10;;;;;;;0.10;0.10;;;20.20;99.90;;;;;;4992707;28;20204;-80
2023/09/10 06:15:38;;;;;;;0.10;0.10;;;20.30;99.90;;;;;;4990826;28;20188;-80
2023/09/10 06:18:04;;;;;;;0.10;0.10;;;20.40;99.90;;;;;;4999658;28;20794;-80
2023/09/10 06:20:29;;;;;;;0.10;0.10;;;20.50;99.90;;;;;;4992847;28;20193;-80
2023/09/10 06:22:56;;;;;;;0.10;0.10;;;20.60;99.90;;;;;;4999732;28;21345;-80
2023/09/10 06:25:23;;;;;;;0.10;0.10;;;20.70;99.90;;;;;;4998080;28;20256;-80
2023/09/10 06:27:48;;;;;;;0.10;0.10;;;20.70;99.90;;;;;;4992246;28;20215;-80
2023/09/10 06:30:14;;;;;;;0.10;0.10;;;20.90;99.90;;;;;;4988391;28;20680;-80
2023/09/10 06:32:39;;;;;;;0.10;0.10;;;20.90;99.90;;;;;;4993652;28;20208;-80
2023/09/10 06:35:05;;;;;;;0.10;0.10;;;21.00;99.90;;;;;;4987481;28;20199;-81
2023/09/10 06:37:31;;;;;;;0.10;0.10;;;20.80;99.90;;;;;;4992187;28;20184;-82
2023/09/10 06:39:56;;;;;;;0.10;0.10;;;20.80;99.90;;;;;;4982549;28;20196;-82
2023/09/10 06:42:22;;;;;;;0.10;0.10;;;21.10;99.90;;;;;;4989531;28;20206;-82
2023/09/10 06:44:47;;;;;;;0.10;0.10;;;21.00;99.90;;;;;;4989276;28;20187;-82
2023/09/10 06:47:13;;;;;;;0.10;0.10;;;21.00;99.90;;;;;;4983924;28;20204;-82
2023/09/10 06:49:39;;;;;;;0.10;0.10;;;21.30;99.90;;;;;;4990835;28;20686;-82
2023/09/10 06:52:05;;;;;;;0.10;0.10;;;21.50;99.90;;;;;;4989715;28;20202;-82
2023/09/10 06:54:31;;;;;;;0.10;0.10;;;21.70;99.90;;;;;;4989828;28;20200;-82
2023/09/10 06:56:58;;;;;;;0.10;0.10;;;21.90;99.90;;;;;;4982171;28;20813;-82
2023/09/10 06:59:24;;;;;;;0.10;0.10;;;22.10;99.90;;;;;;4982702;28;20187;-82
2023/09/10 07:01:50;;;;;;;0.10;0.10;;;22.30;99.90;;;;;;4990170;28;20226;-83
2023/09/10 07:04:23;;;;;;;0.10;0.10;;;22.30;99.90;;;;;;4990093;28;20600;-82
2023/09/10 07:06:50;;;;;;;0.10;0.10;;;22.30;99.90;;;;;;4989962;28;20291;-82
2023/09/10 07:09:17;;;;;;;0.10;0.10;;;22.50;99.90;;;;;;4981924;28;20184;-82
2023/09/10 07:11:43;;;;;;;0.10;0.10;;;22.80;99.90;;;;;;4982957;28;20557;-82
2023/09/10 07:14:09;;;;;;;0.10;0.10;;;23.00;99.90;;;;;;4983068;28;20204;-82
2023/09/10 07:16:34;;;;;;;0.10;0.10;;;23.10;99.90;;;;;;4981688;28;20551;-82
2023/09/10 07:19:00;;;;;;;0.10;0.10;;;23.10;99.90;;;;;;4990409;28;20189;-82
2023/09/10 07:21:26;;;;;;;0.10;0.10;;;23.30;99.90;;;;;;4989007;28;20208;-82
2023/09/10 07:23:52;;;;;;;0.10;0.10;;;23.40;99.90;;;;;;4983892;28;20215;-81
2023/09/10 07:26:17;;;;;;;0.10;0.10;;;23.60;99.90;;;;;;4978939;28;20550;-79
2023/09/10 07:28:43;;;;;;;0.10;0.10;;;23.60;99.90;;;;;;4993713;28;20190;-79
2023/09/10 07:31:08;;;;;;;0.10;0.10;;;23.70;99.90;;;;;;4978181;28;20172;-79
2023/09/10 07:33:34;;;;;;;0.10;0.10;;;23.90;99.90;;;;;;4980786;28;20226;-80
2023/09/10 07:35:59;;;;;;;0.10;0.10;;;23.80;99.90;;;;;;5003876;28;20271;-80
2023/09/10 07:38:25;;;;;;;0.10;0.10;;;23.70;99.90;;;;;;4985708;28;20188;-80
2023/09/10 07:40:50;;;;;;;0.10;0.10;;;23.80;99.90;;;;;;4996701;28;20211;-80
2023/09/10 07:43:16;;;;;;;0.10;0.10;;;24.00;99.90;;;;;;4988621;28;20227;-80
2023/09/10 07:45:41;;;;;;;0.10;0.10;;;24.00;99.90;;;;;;4985255;28;20181;-80
2023/09/10 07:48:07;;;;;;;0.10;0.10;;;24.10;99.90;;;;;;4987800;28;20246;-80
2023/09/10 07:50:33;;;;;;;0.10;0.10;;;24.10;99.90;;;;;;4987747;28;20710;-80
2023/09/10 07:52:58;;;;;;;0.10;0.10;;;24.30;99.90;;;;;;4985783;28;20729;-80
2023/09/10 07:55:25;;;;;;;0.10;0.10;;;24.40;99.90;;;;;;4991306;28;20187;-80
2023/09/10 07:57:50;;;;;;;0.10;0.10;;;24.40;99.90;;;;;;4993591;28;20212;-82
2023/09/10 08:00:17;;;;;;;0.10;0.10;;;24.50;99.90;;;;;;4990370;28;20192;-81
2023/09/10 08:02:43;;;;;;;0.10;0.10;;;24.60;99.90;;;;;;4988664;28;20203;-81
2023/09/10 08:05:08;;;;;;;0.10;0.10;;;24.60;99.90;;;;;;4988521;28;20200;-81
2023/09/10 08:07:34;;;;;;;0.10;0.10;;;24.70;99.90;;;;;;5000962;28;20256;-81
2023/09/10 08:10:00;;;;;;;0.10;0.10;;;24.90;99.90;;;;;;4994651;28;20232;-81
2023/09/10 08:12:26;;;;;;;0.10;0.10;;;25.00;99.90;;;;;;4992121;28;20652;-81
2023/09/10 08:14:51;;;;;;;0.10;0.10;;;25.20;99.90;;;;;;5004516;28;20189;-81
2023/09/10 08:17:17;;;;;;;0.10;0.10;;;25.30;99.90;;;;;;4990766;28;20302;-79
2023/09/10 08:19:42;;;;;;;0.10;0.10;;;25.50;99.90;;;;;;4991130;28;20184;-80
2023/09/10 08:22:08;;;;;;;0.10;0.10;;;25.70;99.90;;;;;;4991897;28;20191;-81
2023/09/10 08:24:34;;;;;;;0.10;0.10;;;25.80;99.90;;;;;;4984314;28;20236;-80
2023/09/10 08:27:03;;;;;;;0.10;0.10;;;25.90;99.90;;;;;;4990338;28;20742;-80
2023/09/10 08:29:28;;;;;;;0.10;0.10;;;25.90;99.90;;;;;;4997501;28;20812;-80
2023/09/10 08:31:55;;;;;;;0.10;0.10;;;25.90;99.90;;;;;;4984614;28;20219;-80
2023/09/10 08:34:22;;;;;;;0.10;0.10;;;25.90;99.90;;;;;;4992066;28;20204;-81
2023/09/10 08:36:47;;;;;;;0.10;0.10;;;26.10;99.90;;;;;;4999294;28;20192;-80
2023/09/10 08:39:13;;;;;;;0.10;0.10;;;26.10;99.90;;;;;;4991841;28;20191;-80
2023/09/10 08:42:01;;;;;;;0.10;0.10;;;26.20;99.90;;;;;;4986068;28;20223;-80
2023/09/10 08:44:28;;;;;;;0.10;0.10;;;26.40;99.90;;;;;;4984255;28;20568;-80
2023/09/10 08:46:59;;;;;;;0.10;0.10;;;26.50;99.90;;;;;;4976076;28;20696;-80
2023/09/10 08:49:27;;;;;;;0.10;0.10;;;26.60;99.90;;;;;;4989149;28;20312;-80
2023/09/10 08:51:54;;;;;;;0.10;0.10;;;26.70;99.90;;;;;;4982415;28;20211;-80
2023/09/10 08:54:19;;;;;;;0.10;0.10;;;26.50;99.90;;;;;;4984462;28;21066;-80
2023/09/10 08:56:48;;;;;;;0.10;0.10;;;26.80;99.90;;;;;;4980730;28;20192;-79
2023/09/10 08:59:15;;;;;;;0.10;0.10;;;27.00;99.90;;;;;;4988363;28;20682;-79
2023/09/10 09:01:44;;;;;;;0.10;0.10;;;27.00;99.90;;;;;;4981143;28;20192;-80
2023/09/10 09:04:12;;;;;;;0.10;0.10;;;27.20;99.90;;;;;;4987982;28;20683;-80
2023/09/10 09:06:43;;;;;;;0.10;0.10;;;27.40;99.90;;;;;;4988273;28;20620;-80
2023/09/10 09:09:11;;;;;;;0.10;0.10;;;27.50;99.90;;;;;;4988580;28;20219;-80
2023/09/10 09:11:39;;;;;;;0.10;0.10;;;27.70;99.90;;;;;;4980706;28;20187;-80
2023/09/10 09:14:08;;;;;;;0.10;0.10;;;27.80;99.90;;;;;;4987888;28;20250;-80
2023/09/10 09:16:34;;;;;;;0.10;0.10;;;27.80;99.90;;;;;;4983051;28;20184;-79
2023/09/10 09:19:08;;;;;;;0.10;0.10;;;27.80;99.90;;;;;;4984404;28;20266;-80
2023/09/10 09:21:34;;;;;;;0.10;0.10;;;27.90;99.90;;;;;;4988633;28;20227;-80
2023/09/10 09:24:01;;;;;;;0.10;0.10;;;27.90;99.90;;;;;;4981916;28;20699;-79
2023/09/10 09:26:28;;;;;;;0.10;0.10;;;27.90;99.90;;;;;;4982551;28;20184;-80
2023/09/10 09:28:57;;;;;;;0.10;0.10;;;28.00;99.90;;;;;;4990306;28;20265;-80
2023/09/10 09:31:24;;;;;;;0.10;0.10;;;28.00;99.90;;;;;;4998123;28;20184;-80
2023/09/10 09:33:50;;;;;;;0.10;0.10;;;28.30;99.90;;;;;;4983462;28;20235;-80
2023/09/10 09:36:16;;;;;;;0.10;0.10;;;28.40;99.90;;;;;;4983106;28;20291;-81
2023/09/10 09:38:47;;;;;;;0.10;0.10;;;28.50;99.90;;;;;;4982359;28;20272;-81
2023/09/10 09:41:16;;;;;;;0.10;0.10;;;28.60;99.90;;;;;;4996712;28;20207;-81
2023/09/10 09:43:42;;;;;;;0.10;0.10;;;28.70;99.90;;;;;;4981312;28;20687;-80
2023/09/10 09:46:07;;;;;;;0.10;0.10;;;28.90;99.90;;;;;;4981890;28;20207;-80
2023/09/10 09:48:34;;;;;;;0.10;0.10;;;28.90;99.90;;;;;;4990559;28;20222;-81
2023/09/10 09:51:01;;;;;;;0.10;0.10;;;29.00;99.90;;;;;;4987543;28;20669;-81
2023/09/10 09:53:31;;;;;;;0.10;0.10;;;28.70;99.90;;;;;;4984273;28;20225;-81
2023/09/10 09:55:59;;;;;;;0.10;0.10;;;28.90;99.90;;;;;;4999618;28;20188;-81
2023/09/10 09:58:24;;;;;;;0.10;0.10;;;29.10;99.90;;;;;;4987108;28;20223;-80
2023/09/10 10:00:50;;;;;;;0.10;0.10;;;28.90;99.90;;;;;;4989128;28;20184;-80
2023/09/10 10:03:19;;;;;;;0.10;0.10;;;28.50;99.90;;;;;;4977685;28;20231;-81
2023/09/10 10:05:52;;;;;;;0.10;0.10;;;28.90;99.90;;;;;;4988712;28;20187;-80
2023/09/10 10:08:18;;;;;;;0.10;0.10;;;28.40;99.90;;;;;;4979097;28;20338;-80
2023/09/10 10:10:48;;;;;;;0.10;0.10;;;28.70;99.90;;;;;;4990019;28;20559;-81
2023/09/10 10:13:24;;;;;;;0.10;0.10;;;28.60;99.90;;;;;;4979479;28;20205;-81
2023/09/10 10:15:52;;;;;;;0.10;0.10;;;29.10;99.90;;;;;;4989352;28;20241;-81
2023/09/10 10:18:19;;;;;;;0.10;0.10;;;29.20;99.90;;;;;;4980737;28;20219;-81
2023/09/10 10:20:47;;;;;;;0.10;0.10;;;29.50;99.90;;;;;;4979442;28;20283;-81
2023/09/10 10:23:16;;;;;;;0.10;0.10;;;29.60;99.90;;;;;;4986657;28;20200;-81
2023/09/10 10:25:43;;;;;;;0.10;0.10;;;29.70;99.90;;;;;;4986569;28;20188;-81
2023/09/10 10:28:09;;;;;;;0.10;0.10;;;29.60;99.90;;;;;;4980877;28;20718;-81
2023/09/10 10:30:42;;;;;;;0.10;0.10;;;29.70;99.90;;;;;;4978694;28;20715;-80
2023/09/10 10:33:12;;;;;;;0.10;0.10;;;28.80;99.90;;;;;;4990173;28;20322;-81
2023/09/10 10:35:43;;;;;;;0.10;0.10;;;28.90;99.90;;;;;;4981153;28;20184;-81
2023/09/10 10:38:11;;;;;;;0.10;0.10;;;29.20;99.90;;;;;;4992402;28;20215;-81
2023/09/10 10:40:43;;;;;;;0.10;0.10;;;29.50;99.90;;;;;;4986517;28;20203;-81
2023/09/10 10:43:29;;;;;;;0.10;0.10;;;29.70;99.90;;;;;;4981499;28;20220;-81
2023/09/10 10:45:56;;;;;;;0.10;0.10;;;29.90;99.90;;;;;;4980820;28;20262;-81
2023/09/10 10:48:25;;;;;;;0.10;0.10;;;29.90;99.90;;;;;;4978946;28;20598;-80
2023/09/10 10:50:53;;;;;;;0.10;0.10;;;30.20;99.90;;;;;;4981484;28;20244;-81
2023/09/10 10:53:21;;;;;;;0.10;0.10;;;30.20;99.90;;;;;;4979149;28;20219;-81
2023/09/10 10:55:52;;;;;;;0.10;0.10;;;30.50;99.90;;;;;;4987098;28;20675;-83
2023/09/10 10:58:23;;;;;;;0.10;0.10;;;30.70;99.90;;;;;;4976375;28;20184;-81
2023/09/10 11:00:51;;;;;;;0.10;0.10;;;30.60;99.90;;;;;;4980070;28;20670;-81
2023/09/10 11:03:18;;;;;;;0.10;0.10;;;30.90;99.90;;;;;;4979825;28;20207;-81
2023/09/10 11:06:05;;;;;;;0.10;0.10;;;30.30;99.90;;;;;;4984158;28;20234;-81
2023/09/10 11:08:41;;;;;;;0.10;0.10;;;29.90;99.90;;;;;;4976888;28;20586;-80
2023/09/10 11:11:31;;;;;;;0.10;0.10;;;30.30;99.90;;;;;;4983039;28;20196;-81
2023/09/10 11:14:01;;;;;;;0.10;0.10;;;30.60;99.90;;;;;;4978666;28;20232;-81
2023/09/10 11:16:34;;;;;;;0.10;0.10;;;30.10;99.90;;;;;;4995930;28;20184;-81
2023/09/10 11:19:01;;;;;;;0.10;0.10;;;29.80;99.90;;;;;;4979225;28;20200;-81
2023/09/10 11:21:55;;;;;;;0.10;0.10;;;30.20;99.90;;;;;;4979556;28;20915;-81
2023/09/10 11:24:20;;;;;;;0.10;0.10;;;30.70;99.90;;;;;;4993900;28;21065;-81
2023/09/10 11:26:46;;;;;;;0.10;0.10;;;30.90;99.90;;;;;;4986498;28;20216;-80
2023/09/10 11:29:19;;;;;;;0.10;0.10;;;31.30;99.90;;;;;;4976979;28;20195;-81
2023/09/10 11:31:48;;;;;;;0.10;0.10;;;31.40;99.90;;;;;;4979690;28;20215;-81
2023/09/10 11:34:17;;;;;;;0.15;0.15;;;31.30;99.90;;;;;;4986277;28;20264;-80
2023/09/10 11:36:59;;;;;;;0.10;0.10;;;31.40;99.90;;;;;;4986106;28;20198;-81
2023/09/10 11:39:25;;;;;;;0.10;0.10;;;31.60;99.90;;;;;;4979464;28;20181;-81
2023/09/10 11:41:53;;;;;;;0.10;0.10;;;31.60;99.90;;;;;;4979070;28;20282;-81
2023/09/10 11:44:19;;;;;;;0.10;0.10;;;31.80;99.90;;;;;;4986659;28;20295;-81
2023/09/10 11:46:45;;;;;;;0.10;0.10;;;32.00;99.90;;;;;;4975719;28;20234;-81
2023/09/10 11:49:11;;;;;;;0.10;0.10;;;32.10;99.90;;;;;;4990958;28;20648;-81
2023/09/10 11:51:51;;;;;;;0.10;0.10;;;32.20;99.90;;;;;;4977159;28;20184;-81
2023/09/10 11:54:19;;;;;;;0.20;0.20;;;32.20;99.90;;;;;;4979513;28;20219;-81
2023/09/10 11:56:52;;;;;;;0.10;0.10;;;32.20;99.90;;;;;;4980055;28;20192;-80
2023/09/10 11:59:23;;;;;;;0.10;0.10;;;32.10;99.90;;;;;;4985014;28;20179;-81
2023/09/10 12:01:49;;;;;;;0.10;0.10;;;31.70;99.90;;;;;;4978246;28;20227;-81
2023/09/10 12:04:16;;;;;;;0.10;0.10;;;32.00;99.90;;;;;;4977636;28;20231;-81
2023/09/10 12:06:42;;;;;;;0.20;0.20;;;32.10;99.90;;;;;;4975371;28;20212;-81
2023/09/10 12:09:08;;;;;;;0.10;0.10;;;32.20;99.90;;;;;;4979009;28;20247;-80
2023/09/10 12:11:35;;;;;;;0.10;0.10;;;32.30;99.90;;;;;;4979404;28;20610;-80
2023/09/10 12:14:02;;;;;;;0.10;0.10;;;32.40;99.90;;;;;;4974378;28;20196;-79
2023/09/10 12:16:28;;;;;;;0.10;0.10;;;32.60;99.90;;;;;;4978300;28;20184;-82
2023/09/10 12:18:53;;;;;;;0.10;0.10;;;32.60;99.90;;;;;;4976780;28;20195;-82
2023/09/10 12:21:19;;;;;;;0.10;0.10;;;32.60;99.90;;;;;;4977794;28;20188;-82
2023/09/10 12:23:46;;;;;;;0.10;0.10;;;32.30;99.90;;;;;;4983304;28;20212;-82
2023/09/10 12:26:12;;;;;;;0.10;0.10;;;31.50;99.90;;;;;;4978218;28;20215;-81
2023/09/10 12:28:38;;;;;;;0.10;0.10;;;31.50;99.90;;;;;;4982971;28;20357;-81
2023/09/10 12:31:05;;;;;;;0.10;0.10;;;31.20;99.90;;;;;;4977193;28;20279;-81
2023/09/10 12:33:31;;;;;;;0.10;0.10;;;31.30;99.90;;;;;;4974847;28;20204;-81
2023/09/10 12:35:57;;;;;;;0.10;0.10;;;31.50;99.90;;;;;;4976604;28;20191;-81
2023/09/10 12:38:23;;;;;;;0.10;0.10;;;31.00;99.90;;;;;;4978520;28;20195;-79
2023/09/10 12:40:51;;;;;;;0.10;0.10;;;31.50;99.90;;;;;;4977078;28;20195;-79
2023/09/10 12:43:19;;;;;;;0.10;0.10;;;31.20;99.90;;;;;;4978963;28;20219;-80
2023/09/10 12:45:45;;;;;;;0.10;0.10;;;31.40;99.90;;;;;;4978329;28;20184;-80
2023/09/10 12:48:11;;;;;;;0.10;0.10;;;31.80;99.90;;;;;;4975897;28;21157;-80